sensor_id;sensor_type;location;lat;lon;timestamp;P1;durP1;ratioP1;P2;durP2;ratioP2
63945;SDS011;50122;56.330;43.838;2023-03-30T00:00:55;7.85;;;3.35;;
63945;SDS011;50122;56.330;43.838;2023-03-30T00:03:21;4.95;;;2.83;;
63945;SDS011;50122;56.330;43.838;2023-03-30T00:05:50;6.93;;;3.03;;
63945;SDS011;50122;56.330;43.838;2023-03-30T00:08:17;5.57;;;3.22;;
63945;SDS011;50122;56.330;43.838;2023-03-30T00:10:44;5.60;;;2.90;;
63945;SDS011;50122;56.330;43.838;2023-03-30T00:13:11;6.40;;;3.08;;
63945;SDS011;50122;56.330;43.838;2023-03-30T00:15:38;4.90;;;2.83;;
63945;SDS011;50122;56.330;43.838;2023-03-30T00:18:06;4.72;;;2.72;;
63945;SDS011;50122;56.330;43.838;2023-03-30T00:20:34;5.55;;;2.90;;
63945;SDS011;50122;56.330;43.838;2023-03-30T00:23:03;6.05;;;3.13;;
63945;SDS011;50122;56.330;43.838;2023-03-30T00:25:30;5.57;;;3.20;;
63945;SDS011;50122;56.330;43.838;2023-03-30T00:27:57;4.88;;;3.10;;
63945;SDS011;50122;56.330;43.838;2023-03-30T00:30:23;7.05;;;3.65;;
63945;SDS011;50122;56.330;43.838;2023-03-30T00:32:50;6.50;;;3.35;;
63945;SDS011;50122;56.330;43.838;2023-03-30T00:35:17;7.70;;;3.53;;
63945;SDS011;50122;56.330;43.838;2023-03-30T00:37:44;7.22;;;3.03;;
63945;SDS011;50122;56.330;43.838;2023-03-30T00:40:16;5.20;;;3.10;;
63945;SDS011;50122;56.330;43.838;2023-03-30T00:42:45;6.30;;;3.30;;
63945;SDS011;50122;56.330;43.838;2023-03-30T00:48:07;6.20;;;2.70;;
63945;SDS011;50122;56.330;43.838;2023-03-30T00:50:39;5.13;;;2.83;;
63945;SDS011;50122;56.330;43.838;2023-03-30T00:53:10;5.03;;;2.70;;
63945;SDS011;50122;56.330;43.838;2023-03-30T00:55:43;4.65;;;2.88;;
63945;SDS011;50122;56.330;43.838;2023-03-30T00:58:13;5.88;;;3.00;;
63945;SDS011;50122;56.330;43.838;2023-03-30T01:00:41;5.75;;;2.88;;
63945;SDS011;50122;56.330;43.838;2023-03-30T01:03:16;6.38;;;3.00;;
63945;SDS011;50122;56.330;43.838;2023-03-30T01:05:48;5.57;;;2.63;;
63945;SDS011;50122;56.330;43.838;2023-03-30T01:08:16;6.70;;;3.17;;
63945;SDS011;50122;56.330;43.838;2023-03-30T01:10:43;7.47;;;2.88;;
63945;SDS011;50122;56.330;43.838;2023-03-30T01:13:14;6.78;;;2.92;;
63945;SDS011;50122;56.330;43.838;2023-03-30T01:15:51;5.72;;;2.70;;
63945;SDS011;50122;56.330;43.838;2023-03-30T01:18:29;5.78;;;3.20;;
63945;SDS011;50122;56.330;43.838;2023-03-30T01:37:52;5.95;;;3.10;;
63945;SDS011;50122;56.330;43.838;2023-03-30T01:40:39;9.10;;;3.40;;
63945;SDS011;50122;56.330;43.838;2023-03-30T01:43:14;6.60;;;3.00;;
63945;SDS011;50122;56.330;43.838;2023-03-30T01:45:47;8.93;;;3.45;;
63945;SDS011;50122;56.330;43.838;2023-03-30T01:48:26;6.32;;;3.25;;
63945;SDS011;50122;56.330;43.838;2023-03-30T01:51:03;7.38;;;3.33;;
63945;SDS011;50122;56.330;43.838;2023-03-30T02:01:34;8.48;;;2.83;;
63945;SDS011;50122;56.330;43.838;2023-03-30T02:04:04;5.15;;;2.90;;
63945;SDS011;50122;56.330;43.838;2023-03-30T02:09:06;6.05;;;3.10;;
63945;SDS011;50122;56.330;43.838;2023-03-30T02:11:37;7.45;;;3.63;;
63945;SDS011;50122;56.330;43.838;2023-03-30T02:14:09;4.53;;;2.63;;
63945;SDS011;50122;56.330;43.838;2023-03-30T02:16:40;6.82;;;3.20;;
63945;SDS011;50122;56.330;43.838;2023-03-30T02:19:11;8.63;;;3.05;;
63945;SDS011;50122;56.330;43.838;2023-03-30T02:21:38;6.97;;;3.00;;
63945;SDS011;50122;56.330;43.838;2023-03-30T02:24:05;7.00;;;3.03;;
63945;SDS011;50122;56.330;43.838;2023-03-30T02:26:46;6.35;;;3.67;;
63945;SDS011;50122;56.330;43.838;2023-03-30T02:29:15;8.05;;;4.40;;
63945;SDS011;50122;56.330;43.838;2023-03-30T02:31:43;7.70;;;3.97;;
63945;SDS011;50122;56.330;43.838;2023-03-30T02:34:14;5.63;;;3.22;;
63945;SDS011;50122;56.330;43.838;2023-03-30T02:51:07;6.15;;;3.00;;
63945;SDS011;50122;56.330;43.838;2023-03-30T02:56:55;6.70;;;3.60;;
63945;SDS011;50122;56.330;43.838;2023-03-30T02:59:56;7.95;;;3.33;;
63945;SDS011;50122;56.330;43.838;2023-03-30T03:02:44;6.53;;;3.05;;
63945;SDS011;50122;56.330;43.838;2023-03-30T03:05:17;4.32;;;2.65;;
63945;SDS011;50122;56.330;43.838;2023-03-30T03:07:46;6.88;;;3.10;;
63945;SDS011;50122;56.330;43.838;2023-03-30T03:10:13;7.00;;;3.30;;
63945;SDS011;50122;56.330;43.838;2023-03-30T03:12:40;8.43;;;3.05;;
63945;SDS011;50122;56.330;43.838;2023-03-30T03:15:09;8.30;;;3.25;;
63945;SDS011;50122;56.330;43.838;2023-03-30T03:17:37;6.57;;;3.20;;
63945;SDS011;50122;56.330;43.838;2023-03-30T03:20:04;7.72;;;4.32;;
63945;SDS011;50122;56.330;43.838;2023-03-30T03:22:33;6.90;;;3.70;;
63945;SDS011;50122;56.330;43.838;2023-03-30T03:25:00;6.70;;;3.40;;
63945;SDS011;50122;56.330;43.838;2023-03-30T03:27:27;6.97;;;3.45;;
63945;SDS011;50122;56.330;43.838;2023-03-30T03:29:55;7.88;;;3.55;;
63945;SDS011;50122;56.330;43.838;2023-03-30T03:32:21;6.80;;;3.55;;
63945;SDS011;50122;56.330;43.838;2023-03-30T03:34:48;6.80;;;3.92;;
63945;SDS011;50122;56.330;43.838;2023-03-30T03:37:15;9.02;;;4.03;;
63945;SDS011;50122;56.330;43.838;2023-03-30T03:39:41;8.77;;;3.75;;
63945;SDS011;50122;56.330;43.838;2023-03-30T03:42:10;9.45;;;4.10;;
63945;SDS011;50122;56.330;43.838;2023-03-30T03:44:37;7.57;;;4.20;;
63945;SDS011;50122;56.330;43.838;2023-03-30T03:47:05;6.55;;;4.00;;
63945;SDS011;50122;56.330;43.838;2023-03-30T03:49:32;7.03;;;4.20;;
63945;SDS011;50122;56.330;43.838;2023-03-30T03:51:59;10.25;;;4.00;;
63945;SDS011;50122;56.330;43.838;2023-03-30T03:54:25;6.28;;;3.92;;
63945;SDS011;50122;56.330;43.838;2023-03-30T03:56:52;7.00;;;3.60;;
63945;SDS011;50122;56.330;43.838;2023-03-30T03:59:19;10.48;;;4.13;;
63945;SDS011;50122;56.330;43.838;2023-03-30T04:01:46;6.47;;;3.80;;
63945;SDS011;50122;56.330;43.838;2023-03-30T04:04:13;5.05;;;3.13;;
63945;SDS011;50122;56.330;43.838;2023-03-30T04:06:39;6.95;;;3.63;;
63945;SDS011;50122;56.330;43.838;2023-03-30T04:09:06;5.22;;;3.22;;
63945;SDS011;50122;56.330;43.838;2023-03-30T04:11:33;5.40;;;3.10;;
63945;SDS011;50122;56.330;43.838;2023-03-30T04:14:00;6.43;;;3.40;;
63945;SDS011;50122;56.330;43.838;2023-03-30T04:16:26;6.70;;;3.53;;
63945;SDS011;50122;56.330;43.838;2023-03-30T04:18:53;6.35;;;3.20;;
63945;SDS011;50122;56.330;43.838;2023-03-30T04:21:20;5.03;;;3.20;;
63945;SDS011;50122;56.330;43.838;2023-03-30T04:23:48;5.93;;;3.40;;
63945;SDS011;50122;56.330;43.838;2023-03-30T04:26:15;7.22;;;3.30;;
63945;SDS011;50122;56.330;43.838;2023-03-30T04:28:43;7.32;;;3.35;;
63945;SDS011;50122;56.330;43.838;2023-03-30T04:31:09;5.15;;;3.25;;
63945;SDS011;50122;56.330;43.838;2023-03-30T04:33:38;6.68;;;3.25;;
63945;SDS011;50122;56.330;43.838;2023-03-30T04:36:18;5.15;;;3.10;;
63945;SDS011;50122;56.330;43.838;2023-03-30T04:38:45;9.55;;;3.50;;
63945;SDS011;50122;56.330;43.838;2023-03-30T04:41:35;8.45;;;3.22;;
63945;SDS011;50122;56.330;43.838;2023-03-30T04:44:02;8.63;;;3.28;;
63945;SDS011;50122;56.330;43.838;2023-03-30T04:46:31;6.15;;;3.53;;
63945;SDS011;50122;56.330;43.838;2023-03-30T04:48:58;6.90;;;3.50;;
63945;SDS011;50122;56.330;43.838;2023-03-30T04:51:26;6.75;;;3.50;;
63945;SDS011;50122;56.330;43.838;2023-03-30T04:53:53;10.68;;;3.50;;
63945;SDS011;50122;56.330;43.838;2023-03-30T04:56:20;6.80;;;3.35;;
63945;SDS011;50122;56.330;43.838;2023-03-30T04:58:47;6.55;;;3.50;;
63945;SDS011;50122;56.330;43.838;2023-03-30T05:01:15;8.98;;;3.80;;
63945;SDS011;50122;56.330;43.838;2023-03-30T05:03:42;8.98;;;3.60;;
63945;SDS011;50122;56.330;43.838;2023-03-30T05:06:08;7.63;;;3.58;;
63945;SDS011;50122;56.330;43.838;2023-03-30T05:08:36;8.23;;;3.40;;
63945;SDS011;50122;56.330;43.838;2023-03-30T05:11:06;5.88;;;3.33;;
63945;SDS011;50122;56.330;43.838;2023-03-30T05:13:33;5.85;;;3.20;;
63945;SDS011;50122;56.330;43.838;2023-03-30T05:15:59;8.35;;;3.80;;
63945;SDS011;50122;56.330;43.838;2023-03-30T05:18:26;9.90;;;3.53;;
63945;SDS011;50122;56.330;43.838;2023-03-30T05:20:56;7.90;;;3.42;;
63945;SDS011;50122;56.330;43.838;2023-03-30T05:23:24;6.97;;;3.50;;
63945;SDS011;50122;56.330;43.838;2023-03-30T05:25:51;7.70;;;3.40;;
63945;SDS011;50122;56.330;43.838;2023-03-30T05:28:20;9.05;;;3.42;;
63945;SDS011;50122;56.330;43.838;2023-03-30T16:53:41;18.80;;;4.88;;
63945;SDS011;50122;56.330;43.838;2023-03-30T16:56:16;16.13;;;5.28;;
63945;SDS011;50122;56.330;43.838;2023-03-30T16:58:44;10.00;;;5.18;;
63945;SDS011;50122;56.330;43.838;2023-03-30T17:01:13;9.23;;;4.40;;
63945;SDS011;50122;56.330;43.838;2023-03-30T17:03:44;9.48;;;4.88;;
63945;SDS011;50122;56.330;43.838;2023-03-30T17:06:12;10.65;;;5.00;;
63945;SDS011;50122;56.330;43.838;2023-03-30T17:08:39;11.93;;;5.18;;
63945;SDS011;50122;56.330;43.838;2023-03-30T17:11:08;10.13;;;4.88;;
63945;SDS011;50122;56.330;43.838;2023-03-30T17:13:38;7.78;;;5.00;;
63945;SDS011;50122;56.330;43.838;2023-03-30T17:16:06;8.23;;;4.70;;
63945;SDS011;50122;56.330;43.838;2023-03-30T17:18:33;7.93;;;4.70;;
63945;SDS011;50122;56.330;43.838;2023-03-30T17:21:00;10.02;;;4.75;;
63945;SDS011;50122;56.330;43.838;2023-03-30T17:23:29;15.10;;;5.30;;
63945;SDS011;50122;56.330;43.838;2023-03-30T17:26:00;11.63;;;4.85;;
63945;SDS011;50122;56.330;43.838;2023-03-30T17:30:57;9.63;;;5.05;;
63945;SDS011;50122;56.330;43.838;2023-03-30T17:33:26;11.02;;;4.55;;
63945;SDS011;50122;56.330;43.838;2023-03-30T17:35:56;8.57;;;4.72;;
63945;SDS011;50122;56.330;43.838;2023-03-30T17:38:25;10.20;;;4.70;;
63945;SDS011;50122;56.330;43.838;2023-03-30T17:40:54;12.05;;;5.05;;
63945;SDS011;50122;56.330;43.838;2023-03-30T17:43:21;10.27;;;4.72;;
63945;SDS011;50122;56.330;43.838;2023-03-30T17:45:48;10.82;;;5.13;;
63945;SDS011;50122;56.330;43.838;2023-03-30T17:48:20;10.57;;;5.50;;
63945;SDS011;50122;56.330;43.838;2023-03-30T17:50:48;9.23;;;5.13;;
63945;SDS011;50122;56.330;43.838;2023-03-30T17:53:19;11.10;;;4.72;;
63945;SDS011;50122;56.330;43.838;2023-03-30T17:55:49;11.98;;;4.57;;
63945;SDS011;50122;56.330;43.838;2023-03-30T17:58:19;10.48;;;5.00;;
63945;SDS011;50122;56.330;43.838;2023-03-30T18:00:46;14.35;;;4.85;;
63945;SDS011;50122;56.330;43.838;2023-03-30T18:03:16;9.85;;;5.00;;
63945;SDS011;50122;56.330;43.838;2023-03-30T18:05:50;13.35;;;4.60;;
63945;SDS011;50122;56.330;43.838;2023-03-30T18:08:18;8.77;;;4.60;;
63945;SDS011;50122;56.330;43.838;2023-03-30T18:10:57;14.90;;;4.63;;
63945;SDS011;50122;56.330;43.838;2023-03-30T18:13:27;8.52;;;4.47;;
63945;SDS011;50122;56.330;43.838;2023-03-30T18:15:58;11.65;;;4.82;;
63945;SDS011;50122;56.330;43.838;2023-03-30T18:18:27;10.02;;;4.85;;
63945;SDS011;50122;56.330;43.838;2023-03-30T18:20:57;9.38;;;4.90;;
63945;SDS011;50122;56.330;43.838;2023-03-30T18:23:28;14.18;;;5.00;;
63945;SDS011;50122;56.330;43.838;2023-03-30T18:25:55;11.30;;;5.78;;
63945;SDS011;50122;56.330;43.838;2023-03-30T18:28:23;10.00;;;5.28;;
63945;SDS011;50122;56.330;43.838;2023-03-30T18:30:52;10.40;;;5.40;;
63945;SDS011;50122;56.330;43.838;2023-03-30T18:33:23;15.18;;;5.38;;
63945;SDS011;50122;56.330;43.838;2023-03-30T18:35:53;11.73;;;5.22;;
63945;SDS011;50122;56.330;43.838;2023-03-30T18:38:22;15.23;;;6.00;;
63945;SDS011;50122;56.330;43.838;2023-03-30T18:40:51;10.43;;;5.63;;
63945;SDS011;50122;56.330;43.838;2023-03-30T18:43:24;14.50;;;8.25;;
63945;SDS011;50122;56.330;43.838;2023-03-30T18:45:56;13.13;;;6.93;;
63945;SDS011;50122;56.330;43.838;2023-03-30T18:48:27;20.08;;;7.15;;
63945;SDS011;50122;56.330;43.838;2023-03-30T18:50:54;10.77;;;5.90;;
63945;SDS011;50122;56.330;43.838;2023-03-30T18:53:25;10.32;;;6.10;;
63945;SDS011;50122;56.330;43.838;2023-03-30T18:55:55;12.13;;;5.85;;
63945;SDS011;50122;56.330;43.838;2023-03-30T18:58:24;12.98;;;6.35;;
63945;SDS011;50122;56.330;43.838;2023-03-30T19:00:53;11.85;;;6.32;;
63945;SDS011;50122;56.330;43.838;2023-03-30T19:03:21;10.07;;;6.30;;
63945;SDS011;50122;56.330;43.838;2023-03-30T19:05:49;10.90;;;6.10;;
63945;SDS011;50122;56.330;43.838;2023-03-30T19:08:17;10.57;;;5.47;;
63945;SDS011;50122;56.330;43.838;2023-03-30T19:10:46;14.77;;;5.80;;
63945;SDS011;50122;56.330;43.838;2023-03-30T19:13:18;13.23;;;5.75;;
63945;SDS011;50122;56.330;43.838;2023-03-30T19:15:46;10.02;;;5.15;;
63945;SDS011;50122;56.330;43.838;2023-03-30T19:18:14;13.27;;;5.82;;
63945;SDS011;50122;56.330;43.838;2023-03-30T19:20:43;11.10;;;5.82;;
63945;SDS011;50122;56.330;43.838;2023-03-30T19:23:11;11.50;;;5.90;;
63945;SDS011;50122;56.330;43.838;2023-03-30T19:25:40;10.25;;;5.95;;
63945;SDS011;50122;56.330;43.838;2023-03-30T19:28:08;13.10;;;5.75;;
63945;SDS011;50122;56.330;43.838;2023-03-30T19:30:35;11.32;;;6.22;;
63945;SDS011;50122;56.330;43.838;2023-03-30T19:33:06;16.30;;;6.78;;
63945;SDS011;50122;56.330;43.838;2023-03-30T19:35:34;11.85;;;6.28;;
63945;SDS011;50122;56.330;43.838;2023-03-30T19:38:04;11.55;;;6.13;;
63945;SDS011;50122;56.330;43.838;2023-03-30T19:40:31;14.73;;;6.93;;
63945;SDS011;50122;56.330;43.838;2023-03-30T19:42:58;12.57;;;6.60;;
63945;SDS011;50122;56.330;43.838;2023-03-30T19:45:24;13.88;;;6.32;;
63945;SDS011;50122;56.330;43.838;2023-03-30T19:47:51;13.02;;;7.05;;
63945;SDS011;50122;56.330;43.838;2023-03-30T19:50:19;14.00;;;6.78;;
63945;SDS011;50122;56.330;43.838;2023-03-30T19:52:50;16.02;;;7.10;;
63945;SDS011;50122;56.330;43.838;2023-03-30T19:55:17;11.40;;;5.65;;
63945;SDS011;50122;56.330;43.838;2023-03-30T19:57:44;11.82;;;6.80;;
63945;SDS011;50122;56.330;43.838;2023-03-30T20:00:18;13.75;;;6.10;;
63945;SDS011;50122;56.330;43.838;2023-03-30T20:02:46;11.85;;;6.15;;
63945;SDS011;50122;56.330;43.838;2023-03-30T20:05:17;11.80;;;6.30;;
63945;SDS011;50122;56.330;43.838;2023-03-30T20:07:46;12.70;;;6.13;;
63945;SDS011;50122;56.330;43.838;2023-03-30T20:10:17;12.95;;;6.68;;
63945;SDS011;50122;56.330;43.838;2023-03-30T20:12:46;11.65;;;6.18;;
63945;SDS011;50122;56.330;43.838;2023-03-30T20:15:15;10.60;;;6.05;;
63945;SDS011;50122;56.330;43.838;2023-03-30T20:17:42;14.20;;;5.80;;
63945;SDS011;50122;56.330;43.838;2023-03-30T20:20:12;8.73;;;5.65;;
63945;SDS011;50122;56.330;43.838;2023-03-30T20:22:42;15.88;;;6.18;;
63945;SDS011;50122;56.330;43.838;2023-03-30T20:25:11;15.63;;;6.28;;
63945;SDS011;50122;56.330;43.838;2023-03-30T20:27:40;10.77;;;6.50;;
63945;SDS011;50122;56.330;43.838;2023-03-30T20:30:07;12.32;;;6.40;;
63945;SDS011;50122;56.330;43.838;2023-03-30T20:32:34;11.98;;;6.32;;
63945;SDS011;50122;56.330;43.838;2023-03-30T20:35:01;12.65;;;6.32;;
63945;SDS011;50122;56.330;43.838;2023-03-30T20:37:28;11.90;;;6.43;;
63945;SDS011;50122;56.330;43.838;2023-03-30T20:39:54;11.95;;;6.82;;
63945;SDS011;50122;56.330;43.838;2023-03-30T20:42:29;13.57;;;6.40;;
63945;SDS011;50122;56.330;43.838;2023-03-30T20:44:57;15.23;;;7.22;;
63945;SDS011;50122;56.330;43.838;2023-03-30T20:47:25;16.50;;;7.95;;
63945;SDS011;50122;56.330;43.838;2023-03-30T20:49:56;14.00;;;7.97;;
63945;SDS011;50122;56.330;43.838;2023-03-30T20:52:24;14.77;;;8.43;;
63945;SDS011;50122;56.330;43.838;2023-03-30T20:54:58;15.63;;;7.53;;
63945;SDS011;50122;56.330;43.838;2023-03-30T20:57:26;14.63;;;7.97;;
63945;SDS011;50122;56.330;43.838;2023-03-30T20:59:53;15.02;;;8.13;;
63945;SDS011;50122;56.330;43.838;2023-03-30T21:02:19;13.35;;;8.30;;
63945;SDS011;50122;56.330;43.838;2023-03-30T21:04:47;14.60;;;8.77;;
63945;SDS011;50122;56.330;43.838;2023-03-30T21:07:15;12.82;;;8.02;;
63945;SDS011;50122;56.330;43.838;2023-03-30T21:09:43;14.38;;;8.65;;
63945;SDS011;50122;56.330;43.838;2023-03-30T21:12:10;13.25;;;7.60;;
63945;SDS011;50122;56.330;43.838;2023-03-30T21:14:37;15.45;;;8.18;;
63945;SDS011;50122;56.330;43.838;2023-03-30T21:17:03;13.88;;;8.18;;
63945;SDS011;50122;56.330;43.838;2023-03-30T21:19:31;16.10;;;7.85;;
63945;SDS011;50122;56.330;43.838;2023-03-30T21:21:58;13.98;;;8.80;;
63945;SDS011;50122;56.330;43.838;2023-03-30T21:24:26;13.27;;;8.50;;
63945;SDS011;50122;56.330;43.838;2023-03-30T21:26:55;16.48;;;8.60;;
63945;SDS011;50122;56.330;43.838;2023-03-30T21:29:22;16.55;;;8.88;;
63945;SDS011;50122;56.330;43.838;2023-03-30T21:31:49;14.10;;;8.73;;
63945;SDS011;50122;56.330;43.838;2023-03-30T21:34:16;13.98;;;8.38;;
63945;SDS011;50122;56.330;43.838;2023-03-30T21:36:44;14.05;;;8.85;;
63945;SDS011;50122;56.330;43.838;2023-03-30T21:39:11;12.95;;;8.98;;
63945;SDS011;50122;56.330;43.838;2023-03-30T21:41:38;14.40;;;8.63;;
63945;SDS011;50122;56.330;43.838;2023-03-30T21:44:04;12.82;;;8.50;;
63945;SDS011;50122;56.330;43.838;2023-03-30T21:46:31;12.68;;;8.68;;
63945;SDS011;50122;56.330;43.838;2023-03-30T21:48:58;14.10;;;8.60;;
63945;SDS011;50122;56.330;43.838;2023-03-30T21:51:25;12.45;;;9.07;;
63945;SDS011;50122;56.330;43.838;2023-03-30T21:53:54;15.75;;;9.30;;
63945;SDS011;50122;56.330;43.838;2023-03-30T21:56:24;13.45;;;9.57;;
63945;SDS011;50122;56.330;43.838;2023-03-30T21:58:54;14.88;;;9.30;;
63945;SDS011;50122;56.330;43.838;2023-03-30T22:01:21;14.40;;;8.60;;
63945;SDS011;50122;56.330;43.838;2023-03-30T22:03:51;13.57;;;9.43;;
63945;SDS011;50122;56.330;43.838;2023-03-30T22:06:19;14.52;;;9.48;;
63945;SDS011;50122;56.330;43.838;2023-03-30T22:08:46;13.88;;;9.63;;
63945;SDS011;50122;56.330;43.838;2023-03-30T22:11:14;13.63;;;9.63;;
63945;SDS011;50122;56.330;43.838;2023-03-30T22:13:42;13.15;;;8.82;;
63945;SDS011;50122;56.330;43.838;2023-03-30T22:16:14;16.42;;;10.15;;
63945;SDS011;50122;56.330;43.838;2023-03-30T22:18:43;13.60;;;9.98;;
63945;SDS011;50122;56.330;43.838;2023-03-30T22:21:11;17.90;;;9.38;;
63945;SDS011;50122;56.330;43.838;2023-03-30T22:23:40;15.80;;;10.18;;
63945;SDS011;50122;56.330;43.838;2023-03-30T22:26:07;17.40;;;10.38;;
63945;SDS011;50122;56.330;43.838;2023-03-30T22:28:34;14.05;;;10.23;;
63945;SDS011;50122;56.330;43.838;2023-03-30T22:31:04;18.15;;;10.43;;
63945;SDS011;50122;56.330;43.838;2023-03-30T22:33:32;13.43;;;10.32;;
63945;SDS011;50122;56.330;43.838;2023-03-30T22:35:59;15.23;;;9.65;;
63945;SDS011;50122;56.330;43.838;2023-03-30T22:38:28;17.10;;;10.40;;
63945;SDS011;50122;56.330;43.838;2023-03-30T22:41:01;14.73;;;10.23;;
63945;SDS011;50122;56.330;43.838;2023-03-30T22:43:33;13.95;;;10.10;;
63945;SDS011;50122;56.330;43.838;2023-03-30T22:46:03;19.02;;;10.80;;
63945;SDS011;50122;56.330;43.838;2023-03-30T22:48:31;15.77;;;10.77;;
63945;SDS011;50122;56.330;43.838;2023-03-30T22:51:02;19.73;;;11.20;;
63945;SDS011;50122;56.330;43.838;2023-03-30T22:53:30;21.45;;;11.90;;
63945;SDS011;50122;56.330;43.838;2023-03-30T22:55:57;18.50;;;11.20;;
63945;SDS011;50122;56.330;43.838;2023-03-30T22:58:24;15.77;;;10.88;;
63945;SDS011;50122;56.330;43.838;2023-03-30T23:00:51;15.05;;;10.52;;
63945;SDS011;50122;56.330;43.838;2023-03-30T23:03:18;23.75;;;11.23;;
63945;SDS011;50122;56.330;43.838;2023-03-30T23:05:49;18.13;;;11.48;;
63945;SDS011;50122;56.330;43.838;2023-03-30T23:08:17;15.02;;;11.25;;
63945;SDS011;50122;56.330;43.838;2023-03-30T23:10:43;16.00;;;10.57;;
63945;SDS011;50122;56.330;43.838;2023-03-30T23:13:11;15.45;;;10.35;;
63945;SDS011;50122;56.330;43.838;2023-03-30T23:15:39;15.10;;;10.07;;
63945;SDS011;50122;56.330;43.838;2023-03-30T23:18:06;16.58;;;10.88;;
63945;SDS011;50122;56.330;43.838;2023-03-30T23:20:33;16.63;;;10.57;;
63945;SDS011;50122;56.330;43.838;2023-03-30T23:23:01;15.85;;;10.60;;
63945;SDS011;50122;56.330;43.838;2023-03-30T23:25:28;14.65;;;10.27;;
63945;SDS011;50122;56.330;43.838;2023-03-30T23:27:54;15.50;;;10.70;;
63945;SDS011;50122;56.330;43.838;2023-03-30T23:30:23;15.82;;;10.38;;
63945;SDS011;50122;56.330;43.838;2023-03-30T23:32:49;17.92;;;10.48;;
63945;SDS011;50122;56.330;43.838;2023-03-30T23:35:16;16.10;;;10.82;;
63945;SDS011;50122;56.330;43.838;2023-03-30T23:37:44;14.70;;;10.07;;
63945;SDS011;50122;56.330;43.838;2023-03-30T23:40:11;15.02;;;9.93;;
63945;SDS011;50122;56.330;43.838;2023-03-30T23:42:38;13.13;;;10.07;;
63945;SDS011;50122;56.330;43.838;2023-03-30T23:45:04;15.13;;;10.43;;
63945;SDS011;50122;56.330;43.838;2023-03-30T23:47:32;18.20;;;10.07;;
63945;SDS011;50122;56.330;43.838;2023-03-30T23:49:58;16.88;;;11.10;;
63945;SDS011;50122;56.330;43.838;2023-03-30T23:52:27;23.98;;;10.73;;
63945;SDS011;50122;56.330;43.838;2023-03-30T23:54:54;18.17;;;10.43;;
63945;SDS011;50122;56.330;43.838;2023-03-30T23:57:27;15.68;;;10.80;;
63945;SDS011;50122;56.330;43.838;2023-03-30T23:59:53;15.07;;;10.15;;
